KTDZ

Toledo Executive Airport

Toledo, Ohio, USA
METAR KTDZ 142253Z AUTO 36005KT 8SM CLR 07/06 A3017 RMK AO2 SLP220 T00720061
Observed Flight Rules
Dec-14 @ 22:53 UTC (an hour ago) Visual Flight Rules
Wind Visibility Clouds
360° at 5 knots 8 miles
  • Clear skies
Temperatures Readings
Current 7°C / 45°F
Dewpoint 6°C / 43°F
Humidity 93%
Altimeter 30.17" Hg
Pressure 1022 hPa
Elevation 189
METAR KTDZ 142253Z AUTO 36005KT 8SM CLR 07/06 A3017 RMK AO2 SLP220 T00720061
Observed Flight Rules
Dec-14 @ 22:53 UTC
(an hour ago)
VFR
Wind Visibility
360° at 5 knots 8 miles
Clouds
  • Clear skies
Temperature Dewpoint
7°C / 45°F 6°C / 43°F
Humidity Altimeter Pressure
93% 30.17" Hg 1022 hPa